sensor_id;sensor_type;location;lat;lon;timestamp;pressure;altitude;pressure_sealevel;temperature;humidity
8894;BME280;4483;48.622;9.230;2022-08-14T00:01:34;97545.94;;;16.90;66.84
8894;BME280;4483;48.622;9.230;2022-08-14T00:04:01;97548.84;;;16.85;66.92
8894;BME280;4483;48.622;9.230;2022-08-14T00:06:28;97540.66;;;16.79;66.90
8894;BME280;4483;48.622;9.230;2022-08-14T00:08:55;97526.31;;;16.73;67.39
8894;BME280;4483;48.622;9.230;2022-08-14T00:11:21;97524.84;;;16.69;67.66
8894;BME280;4483;48.622;9.230;2022-08-14T00:13:49;97525.16;;;16.65;67.53
8894;BME280;4483;48.622;9.230;2022-08-14T00:16:16;97521.22;;;16.59;68.08
8894;BME280;4483;48.622;9.230;2022-08-14T00:18:43;97531.84;;;16.56;67.86
8894;BME280;4483;48.622;9.230;2022-08-14T00:21:10;97524.38;;;16.52;67.92
8894;BME280;4483;48.622;9.230;2022-08-14T00:23:37;97513.50;;;16.45;68.57
8894;BME280;4483;48.622;9.230;2022-08-14T00:26:04;97509.25;;;16.44;68.49
8894;BME280;4483;48.622;9.230;2022-08-14T00:28:31;97514.47;;;16.44;68.48
8894;BME280;4483;48.622;9.230;2022-08-14T00:31:00;97502.59;;;16.40;68.77
8894;BME280;4483;48.622;9.230;2022-08-14T00:33:27;97506.34;;;16.36;68.04
8894;BME280;4483;48.622;9.230;2022-08-14T00:35:54;97502.19;;;16.34;68.61
8894;BME280;4483;48.622;9.230;2022-08-14T00:38:21;97505.94;;;16.30;69.02
8894;BME280;4483;48.622;9.230;2022-08-14T00:40:48;97498.44;;;16.25;68.71
8894;BME280;4483;48.622;9.230;2022-08-14T00:43:15;97495.34;;;16.20;69.50
8894;BME280;4483;48.622;9.230;2022-08-14T00:45:43;97501.56;;;16.18;69.80
8894;BME280;4483;48.622;9.230;2022-08-14T00:48:11;97498.34;;;16.14;69.62
8894;BME280;4483;48.622;9.230;2022-08-14T00:50:38;97498.75;;;16.08;69.44
8894;BME280;4483;48.622;9.230;2022-08-14T00:53:05;97484.53;;;16.01;70.10
8894;BME280;4483;48.622;9.230;2022-08-14T00:55:35;97497.50;;;16.01;70.49
8894;BME280;4483;48.622;9.230;2022-08-14T00:58:06;97486.63;;;15.96;70.43
8894;BME280;4483;48.622;9.230;2022-08-14T01:00:50;97481.09;;;15.88;70.42
8894;BME280;4483;48.622;9.230;2022-08-14T01:03:19;97486.50;;;15.85;70.52
8894;BME280;4483;48.622;9.230;2022-08-14T01:05:48;97480.25;;;15.75;71.19
8894;BME280;4483;48.622;9.230;2022-08-14T01:08:18;97475.38;;;15.70;71.01
8894;BME280;4483;48.622;9.230;2022-08-14T01:10:47;97473.91;;;15.66;71.34
8894;BME280;4483;48.622;9.230;2022-08-14T01:13:18;97465.19;;;15.67;70.94
8894;BME280;4483;48.622;9.230;2022-08-14T01:15:48;97460.00;;;15.67;71.53
8894;BME280;4483;48.622;9.230;2022-08-14T01:18:15;97467.16;;;15.64;72.00
8894;BME280;4483;48.622;9.230;2022-08-14T01:21:08;97471.63;;;15.62;71.85
8894;BME280;4483;48.622;9.230;2022-08-14T01:23:42;97467.56;;;15.58;71.65
8894;BME280;4483;48.622;9.230;2022-08-14T01:26:10;97468.59;;;15.55;72.21
8894;BME280;4483;48.622;9.230;2022-08-14T01:28:38;97472.53;;;15.48;72.10
8894;BME280;4483;48.622;9.230;2022-08-14T01:31:07;97470.97;;;15.46;72.14
8894;BME280;4483;48.622;9.230;2022-08-14T01:33:36;97473.03;;;15.41;72.55
8894;BME280;4483;48.622;9.230;2022-08-14T01:36:07;97473.03;;;15.41;72.77
8894;BME280;4483;48.622;9.230;2022-08-14T01:38:34;97470.44;;;15.41;72.41
8894;BME280;4483;48.622;9.230;2022-08-14T01:41:05;97462.72;;;15.39;73.18
8894;BME280;4483;48.622;9.230;2022-08-14T01:43:32;97470.63;;;15.38;72.53
8894;BME280;4483;48.622;9.230;2022-08-14T01:46:08;97463.00;;;15.35;72.98
8894;BME280;4483;48.622;9.230;2022-08-14T01:48:36;97468.50;;;15.30;72.80
8894;BME280;4483;48.622;9.230;2022-08-14T01:51:03;97466.19;;;15.26;73.91
8894;BME280;4483;48.622;9.230;2022-08-14T01:53:30;97461.13;;;15.24;73.03
8894;BME280;4483;48.622;9.230;2022-08-14T01:55:58;97457.91;;;15.21;73.61
8894;BME280;4483;48.622;9.230;2022-08-14T01:58:29;97447.41;;;15.22;73.87
8894;BME280;4483;48.622;9.230;2022-08-14T02:00:56;97451.97;;;15.19;73.62
8894;BME280;4483;48.622;9.230;2022-08-14T02:03:25;97447.00;;;15.16;73.78
8894;BME280;4483;48.622;9.230;2022-08-14T02:05:53;97439.31;;;15.14;74.05
8894;BME280;4483;48.622;9.230;2022-08-14T02:08:22;97437.94;;;15.08;73.37
8894;BME280;4483;48.622;9.230;2022-08-14T02:10:55;97440.94;;;15.02;74.66
8894;BME280;4483;48.622;9.230;2022-08-14T02:13:38;97439.44;;;14.98;74.38
8894;BME280;4483;48.622;9.230;2022-08-14T02:16:05;97447.44;;;14.95;74.74
8894;BME280;4483;48.622;9.230;2022-08-14T02:18:32;97447.34;;;14.97;74.50
8894;BME280;4483;48.622;9.230;2022-08-14T02:21:00;97437.16;;;14.94;75.23
8894;BME280;4483;48.622;9.230;2022-08-14T02:23:28;97445.13;;;14.91;74.55
8894;BME280;4483;48.622;9.230;2022-08-14T02:25:55;97434.72;;;14.78;74.87
8894;BME280;4483;48.622;9.230;2022-08-14T02:28:24;97441.94;;;14.73;75.57
8894;BME280;4483;48.622;9.230;2022-08-14T02:30:52;97435.09;;;14.72;75.08
8894;BME280;4483;48.622;9.230;2022-08-14T02:33:19;97427.50;;;14.69;75.61
8894;BME280;4483;48.622;9.230;2022-08-14T02:35:47;97411.44;;;14.64;76.08
8894;BME280;4483;48.622;9.230;2022-08-14T02:38:14;97417.44;;;14.65;75.83
8894;BME280;4483;48.622;9.230;2022-08-14T02:40:41;97417.63;;;14.62;76.36
8894;BME280;4483;48.622;9.230;2022-08-14T02:43:08;97418.47;;;14.62;76.14
8894;BME280;4483;48.622;9.230;2022-08-14T02:45:35;97415.97;;;14.61;76.58
8894;BME280;4483;48.622;9.230;2022-08-14T02:48:04;97408.19;;;14.61;75.49
8894;BME280;4483;48.622;9.230;2022-08-14T02:50:33;97397.09;;;14.59;76.59
8894;BME280;4483;48.622;9.230;2022-08-14T02:53:01;97405.13;;;14.54;75.82
8894;BME280;4483;48.622;9.230;2022-08-14T02:55:28;97389.16;;;14.48;75.87
8894;BME280;4483;48.622;9.230;2022-08-14T02:57:57;97392.75;;;14.45;76.57
8894;BME280;4483;48.622;9.230;2022-08-14T03:00:24;97393.72;;;14.44;76.93
8894;BME280;4483;48.622;9.230;2022-08-14T03:02:51;97389.53;;;14.42;77.38
8894;BME280;4483;48.622;9.230;2022-08-14T03:05:19;97388.69;;;14.41;77.07
8894;BME280;4483;48.622;9.230;2022-08-14T03:07:47;97380.59;;;14.33;77.50
8894;BME280;4483;48.622;9.230;2022-08-14T03:10:14;97377.25;;;14.31;77.17
8894;BME280;4483;48.622;9.230;2022-08-14T03:12:41;97379.84;;;14.31;77.62
8894;BME280;4483;48.622;9.230;2022-08-14T03:15:08;97384.09;;;14.32;77.49
8894;BME280;4483;48.622;9.230;2022-08-14T03:17:38;97396.84;;;14.21;77.67
8894;BME280;4483;48.622;9.230;2022-08-14T03:20:05;97384.41;;;14.13;77.65
8894;BME280;4483;48.622;9.230;2022-08-14T03:22:33;97374.09;;;14.12;77.75
8894;BME280;4483;48.622;9.230;2022-08-14T03:25:01;97368.28;;;14.08;77.68
8894;BME280;4483;48.622;9.230;2022-08-14T03:27:29;97364.88;;;14.08;77.43
8894;BME280;4483;48.622;9.230;2022-08-14T03:29:56;97357.28;;;14.05;77.99
8894;BME280;4483;48.622;9.230;2022-08-14T03:32:23;97359.78;;;14.06;77.88
8894;BME280;4483;48.622;9.230;2022-08-14T03:34:49;97354.69;;;14.05;78.09
8894;BME280;4483;48.622;9.230;2022-08-14T03:37:16;97353.94;;;14.03;78.19
8894;BME280;4483;48.622;9.230;2022-08-14T03:39:44;97354.06;;;14.01;78.06
8894;BME280;4483;48.622;9.230;2022-08-14T03:42:11;97349.97;;;13.97;78.69
8894;BME280;4483;48.622;9.230;2022-08-14T03:44:38;97352.03;;;13.92;78.83
8894;BME280;4483;48.622;9.230;2022-08-14T03:47:08;97358.22;;;13.90;79.17
8894;BME280;4483;48.622;9.230;2022-08-14T03:49:37;97358.41;;;13.87;78.54
8894;BME280;4483;48.622;9.230;2022-08-14T03:52:04;97348.16;;;13.85;79.22
8894;BME280;4483;48.622;9.230;2022-08-14T03:54:31;97349.06;;;13.84;79.40
8894;BME280;4483;48.622;9.230;2022-08-14T03:57:02;97344.09;;;13.81;79.45
8894;BME280;4483;48.622;9.230;2022-08-14T03:59:29;97345.84;;;13.81;79.08
8894;BME280;4483;48.622;9.230;2022-08-14T04:01:56;97348.44;;;13.81;79.08
8894;BME280;4483;48.622;9.230;2022-08-14T04:04:23;97344.19;;;13.80;78.94
8894;BME280;4483;48.622;9.230;2022-08-14T04:06:50;97348.53;;;13.79;79.07
8894;BME280;4483;48.622;9.230;2022-08-14T04:09:16;97341.59;;;13.80;79.21
8894;BME280;4483;48.622;9.230;2022-08-14T04:11:43;97345.50;;;13.73;79.26
8894;BME280;4483;48.622;9.230;2022-08-14T04:14:11;97332.16;;;13.65;79.93
8894;BME280;4483;48.622;9.230;2022-08-14T04:16:39;97339.03;;;13.66;80.35
8894;BME280;4483;48.622;9.230;2022-08-14T04:19:10;97332.91;;;13.67;79.90
8894;BME280;4483;48.622;9.230;2022-08-14T04:21:37;97335.50;;;13.67;79.90
8894;BME280;4483;48.622;9.230;2022-08-14T04:24:04;97337.44;;;13.63;79.73
8894;BME280;4483;48.622;9.230;2022-08-14T04:26:31;97329.22;;;13.57;80.04
8894;BME280;4483;48.622;9.230;2022-08-14T04:28:58;97328.50;;;13.55;80.35
8894;BME280;4483;48.622;9.230;2022-08-14T04:31:26;97331.81;;;13.57;80.59
8894;BME280;4483;48.622;9.230;2022-08-14T04:33:53;97332.53;;;13.59;80.10
8894;BME280;4483;48.622;9.230;2022-08-14T04:36:19;97336.59;;;13.63;80.19
8894;BME280;4483;48.622;9.230;2022-08-14T04:38:46;97342.53;;;13.65;80.53
8894;BME280;4483;48.622;9.230;2022-08-14T04:41:30;97353.44;;;13.70;80.26
8894;BME280;4483;48.622;9.230;2022-08-14T04:44:14;97353.16;;;13.74;80.51
8894;BME280;4483;48.622;9.230;2022-08-14T04:46:42;97347.63;;;13.80;80.38
8894;BME280;4483;48.622;9.230;2022-08-14T04:49:31;97352.06;;;13.78;80.04
8894;BME280;4483;48.622;9.230;2022-08-14T04:51:57;97349.38;;;13.80;80.19
8894;BME280;4483;48.622;9.230;2022-08-14T04:54:25;97355.28;;;13.82;80.44
8894;BME280;4483;48.622;9.230;2022-08-14T04:56:52;97350.84;;;13.84;80.46
8894;BME280;4483;48.622;9.230;2022-08-14T04:59:19;97349.44;;;13.92;80.04
8894;BME280;4483;48.622;9.230;2022-08-14T05:01:48;97353.94;;;14.03;80.04
8894;BME280;4483;48.622;9.230;2022-08-14T05:04:15;97347.63;;;14.21;79.75
8894;BME280;4483;48.622;9.230;2022-08-14T05:06:42;97355.22;;;14.38;79.85
8894;BME280;4483;48.622;9.230;2022-08-14T05:09:09;97352.81;;;14.62;79.76
8894;BME280;4483;48.622;9.230;2022-08-14T05:11:36;97362.72;;;14.82;79.34
8894;BME280;4483;48.622;9.230;2022-08-14T05:14:03;97360.72;;;14.99;79.05
8894;BME280;4483;48.622;9.230;2022-08-14T05:16:30;97364.88;;;15.14;78.32
8894;BME280;4483;48.622;9.230;2022-08-14T05:18:58;97374.44;;;15.27;76.99
8894;BME280;4483;48.622;9.230;2022-08-14T05:21:25;97356.69;;;15.33;76.72
8894;BME280;4483;48.622;9.230;2022-08-14T05:23:53;97356.59;;;15.35;76.97
8894;BME280;4483;48.622;9.230;2022-08-14T05:26:19;97345.03;;;15.53;76.75
8894;BME280;4483;48.622;9.230;2022-08-14T05:28:47;97346.88;;;15.76;77.29
8894;BME280;4483;48.622;9.230;2022-08-14T05:31:15;97340.78;;;16.00;76.28
8894;BME280;4483;48.622;9.230;2022-08-14T05:33:43;97343.53;;;16.23;75.85
8894;BME280;4483;48.622;9.230;2022-08-14T05:36:12;97342.34;;;16.39;74.75
8894;BME280;4483;48.622;9.230;2022-08-14T05:38:41;97332.97;;;16.49;74.31
8894;BME280;4483;48.622;9.230;2022-08-14T05:41:10;97331.34;;;16.59;74.25
8894;BME280;4483;48.622;9.230;2022-08-14T05:43:38;97329.66;;;16.71;73.39
8894;BME280;4483;48.622;9.230;2022-08-14T05:46:05;97330.66;;;16.81;73.19
8894;BME280;4483;48.622;9.230;2022-08-14T05:48:32;97327.13;;;16.93;72.36
8894;BME280;4483;48.622;9.230;2022-08-14T05:50:59;97320.06;;;17.06;72.37
8894;BME280;4483;48.622;9.230;2022-08-14T05:53:27;97325.06;;;17.20;71.91
8894;BME280;4483;48.622;9.230;2022-08-14T05:55:54;97327.38;;;17.47;71.42
8894;BME280;4483;48.622;9.230;2022-08-14T05:58:21;97326.22;;;17.62;70.28
8894;BME280;4483;48.622;9.230;2022-08-14T06:00:48;97324.56;;;17.61;69.82
8894;BME280;4483;48.622;9.230;2022-08-14T06:03:17;97323.75;;;17.71;69.66
8894;BME280;4483;48.622;9.230;2022-08-14T06:05:44;97312.84;;;17.88;69.48
8894;BME280;4483;48.622;9.230;2022-08-14T06:08:16;97320.53;;;18.12;68.88
8894;BME280;4483;48.622;9.230;2022-08-14T06:10:44;97318.00;;;18.33;68.12
8894;BME280;4483;48.622;9.230;2022-08-14T06:13:12;97309.19;;;18.56;67.25
8894;BME280;4483;48.622;9.230;2022-08-14T06:15:39;97306.34;;;18.79;66.93
8894;BME280;4483;48.622;9.230;2022-08-14T06:18:07;97305.81;;;19.17;65.96
8894;BME280;4483;48.622;9.230;2022-08-14T06:20:34;97310.66;;;19.42;65.38
8894;BME280;4483;48.622;9.230;2022-08-14T06:23:00;97306.19;;;19.54;64.46
8894;BME280;4483;48.622;9.230;2022-08-14T06:25:27;97308.47;;;19.68;63.93
8894;BME280;4483;48.622;9.230;2022-08-14T06:27:55;97304.00;;;19.89;63.29
8894;BME280;4483;48.622;9.230;2022-08-14T06:30:27;97297.25;;;20.26;62.22
8894;BME280;4483;48.622;9.230;2022-08-14T06:32:54;97291.81;;;20.67;61.16
8894;BME280;4483;48.622;9.230;2022-08-14T06:35:21;97284.50;;;20.99;59.68
8894;BME280;4483;48.622;9.230;2022-08-14T06:37:49;97286.25;;;21.28;59.00
8894;BME280;4483;48.622;9.230;2022-08-14T06:40:18;97278.84;;;21.60;57.76
8894;BME280;4483;48.622;9.230;2022-08-14T06:42:45;97272.00;;;21.86;56.86
8894;BME280;4483;48.622;9.230;2022-08-14T06:45:13;97269.16;;;22.07;56.01
8894;BME280;4483;48.622;9.230;2022-08-14T06:47:42;97262.72;;;22.19;55.04
8894;BME280;4483;48.622;9.230;2022-08-14T06:50:11;97264.22;;;22.39;55.11
8894;BME280;4483;48.622;9.230;2022-08-14T06:52:40;97263.56;;;22.54;53.47
8894;BME280;4483;48.622;9.230;2022-08-14T06:55:08;97255.13;;;22.78;53.71
8894;BME280;4483;48.622;9.230;2022-08-14T06:57:38;97246.63;;;23.10;53.12
8894;BME280;4483;48.622;9.230;2022-08-14T07:00:08;97247.84;;;23.41;51.61
8894;BME280;4483;48.622;9.230;2022-08-14T07:02:37;97239.78;;;23.68;50.81
8894;BME280;4483;48.622;9.230;2022-08-14T07:05:21;97237.56;;;23.89;49.79
8894;BME280;4483;48.622;9.230;2022-08-14T07:08:11;97230.59;;;24.14;49.70
8894;BME280;4483;48.622;9.230;2022-08-14T07:10:38;97229.84;;;24.29;49.06
8894;BME280;4483;48.622;9.230;2022-08-14T07:13:06;97222.63;;;24.47;48.69
8894;BME280;4483;48.622;9.230;2022-08-14T07:15:33;97212.09;;;24.63;48.03
8894;BME280;4483;48.622;9.230;2022-08-14T07:18:01;97207.34;;;24.83;47.80
8894;BME280;4483;48.622;9.230;2022-08-14T07:20:29;97215.06;;;25.01;46.74
8894;BME280;4483;48.622;9.230;2022-08-14T07:22:55;97212.91;;;25.04;46.50
8894;BME280;4483;48.622;9.230;2022-08-14T07:25:24;97222.59;;;25.28;46.73
8894;BME280;4483;48.622;9.230;2022-08-14T07:27:51;97207.75;;;25.51;46.50
8894;BME280;4483;48.622;9.230;2022-08-14T07:30:18;97208.16;;;25.70;45.63
8894;BME280;4483;48.622;9.230;2022-08-14T07:32:44;97206.88;;;25.97;45.59
8894;BME280;4483;48.622;9.230;2022-08-14T07:35:12;97208.03;;;26.33;45.07
8894;BME280;4483;48.622;9.230;2022-08-14T07:37:39;97213.56;;;26.69;44.55
8894;BME280;4483;48.622;9.230;2022-08-14T07:40:07;97217.13;;;26.99;43.97
8894;BME280;4483;48.622;9.230;2022-08-14T07:42:34;97213.06;;;27.25;43.44
8894;BME280;4483;48.622;9.230;2022-08-14T07:45:01;97204.53;;;27.52;42.98
8894;BME280;4483;48.622;9.230;2022-08-14T07:47:27;97213.19;;;27.75;42.01
8894;BME280;4483;48.622;9.230;2022-08-14T07:49:59;97206.78;;;27.99;41.19
8894;BME280;4483;48.622;9.230;2022-08-14T07:52:28;97214.84;;;28.27;40.57
8894;BME280;4483;48.622;9.230;2022-08-14T07:54:55;97211.22;;;28.49;40.38
8894;BME280;4483;48.622;9.230;2022-08-14T07:57:22;97214.41;;;28.80;39.65
8894;BME280;4483;48.622;9.230;2022-08-14T07:59:49;97215.16;;;28.95;38.69
8894;BME280;4483;48.622;9.230;2022-08-14T08:02:16;97213.13;;;28.97;37.95
8894;BME280;4483;48.622;9.230;2022-08-14T08:04:45;97199.81;;;29.12;37.36
8894;BME280;4483;48.622;9.230;2022-08-14T08:07:13;97205.19;;;29.25;37.53
8894;BME280;4483;48.622;9.230;2022-08-14T08:09:45;97204.16;;;29.53;36.81
8894;BME280;4483;48.622;9.230;2022-08-14T08:12:14;97207.16;;;29.78;36.45
8894;BME280;4483;48.622;9.230;2022-08-14T08:14:42;97205.81;;;30.02;35.66
8894;BME280;4483;48.622;9.230;2022-08-14T08:17:09;97205.38;;;30.32;35.68
8894;BME280;4483;48.622;9.230;2022-08-14T08:19:37;97201.34;;;30.69;35.32
8894;BME280;4483;48.622;9.230;2022-08-14T08:22:04;97198.28;;;31.05;34.64
8894;BME280;4483;48.622;9.230;2022-08-14T08:24:31;97198.28;;;31.31;34.17
8894;BME280;4483;48.622;9.230;2022-08-14T08:26:59;97194.63;;;31.38;33.21
8894;BME280;4483;48.622;9.230;2022-08-14T08:29:26;97198.44;;;31.62;33.36
8894;BME280;4483;48.622;9.230;2022-08-14T08:31:53;97190.78;;;31.85;33.03
8894;BME280;4483;48.622;9.230;2022-08-14T08:34:20;97184.81;;;31.96;32.22
8894;BME280;4483;48.622;9.230;2022-08-14T08:36:46;97179.88;;;32.06;32.06
8894;BME280;4483;48.622;9.230;2022-08-14T08:39:13;97190.47;;;32.19;31.16
8894;BME280;4483;48.622;9.230;2022-08-14T08:41:42;97190.47;;;32.19;30.96
8894;BME280;4483;48.622;9.230;2022-08-14T08:44:11;97187.06;;;32.37;29.52
8894;BME280;4483;48.622;9.230;2022-08-14T08:46:37;97186.06;;;32.31;29.10
8894;BME280;4483;48.622;9.230;2022-08-14T08:49:06;97172.44;;;32.52;29.47
8894;BME280;4483;48.622;9.230;2022-08-14T08:51:36;97173.69;;;32.75;29.22
8894;BME280;4483;48.622;9.230;2022-08-14T08:54:05;97167.44;;;32.94;28.29
8894;BME280;4483;48.622;9.230;2022-08-14T08:56:38;97169.53;;;32.85;28.12
8894;BME280;4483;48.622;9.230;2022-08-14T08:59:18;97165.38;;;32.96;28.30
8894;BME280;4483;48.622;9.230;2022-08-14T09:01:49;97159.63;;;33.17;28.41
8894;BME280;4483;48.622;9.230;2022-08-14T09:04:17;97163.13;;;33.35;27.65
8894;BME280;4483;48.622;9.230;2022-08-14T09:06:45;97154.94;;;33.55;27.66
8894;BME280;4483;48.622;9.230;2022-08-14T09:09:19;97143.88;;;33.70;27.25
8894;BME280;4483;48.622;9.230;2022-08-14T09:11:47;97143.19;;;33.74;27.71
8894;BME280;4483;48.622;9.230;2022-08-14T09:14:14;97125.81;;;33.83;26.74
8894;BME280;4483;48.622;9.230;2022-08-14T09:16:43;97128.19;;;33.91;27.03
8894;BME280;4483;48.622;9.230;2022-08-14T09:19:09;97125.84;;;33.65;26.94
8894;BME280;4483;48.622;9.230;2022-08-14T09:21:38;97137.94;;;33.68;26.88
8894;BME280;4483;48.622;9.230;2022-08-14T09:24:06;97145.78;;;33.44;26.72
8894;BME280;4483;48.622;9.230;2022-08-14T09:26:34;97142.63;;;33.54;26.21
8894;BME280;4483;48.622;9.230;2022-08-14T09:29:01;97148.28;;;33.94;26.54
8894;BME280;4483;48.622;9.230;2022-08-14T09:31:28;97144.06;;;34.34;26.41
8894;BME280;4483;48.622;9.230;2022-08-14T09:34:05;97142.81;;;34.78;26.28
8894;BME280;4483;48.622;9.230;2022-08-14T09:36:39;97133.06;;;34.95;25.84
8894;BME280;4483;48.622;9.230;2022-08-14T09:39:15;97137.25;;;35.02;26.14
8894;BME280;4483;48.622;9.230;2022-08-14T09:42:01;97138.06;;;35.03;25.33
8894;BME280;4483;48.622;9.230;2022-08-14T09:44:43;97134.44;;;35.20;25.06
8894;BME280;4483;48.622;9.230;2022-08-14T09:47:11;97130.59;;;35.28;25.24
8894;BME280;4483;48.622;9.230;2022-08-14T09:49:40;97116.03;;;35.24;24.72
8894;BME280;4483;48.622;9.230;2022-08-14T09:52:09;97109.53;;;35.43;25.03
8894;BME280;4483;48.622;9.230;2022-08-14T09:54:37;97091.03;;;35.81;24.68
8894;BME280;4483;48.622;9.230;2022-08-14T09:57:05;97087.63;;;36.14;24.15
8894;BME280;4483;48.622;9.230;2022-08-14T09:59:42;97076.91;;;36.59;23.21
8894;BME280;4483;48.622;9.230;2022-08-14T10:02:18;97093.31;;;36.46;22.16
8894;BME280;4483;48.622;9.230;2022-08-14T10:04:58;97090.31;;;36.42;22.23
8894;BME280;4483;48.622;9.230;2022-08-14T10:07:29;97091.88;;;36.26;21.40
8894;BME280;4483;48.622;9.230;2022-08-14T10:09:56;97095.94;;;36.29;21.09
8894;BME280;4483;48.622;9.230;2022-08-14T10:12:23;97088.47;;;36.31;21.30
8894;BME280;4483;48.622;9.230;2022-08-14T10:14:50;97064.66;;;36.34;21.55
8894;BME280;4483;48.622;9.230;2022-08-14T10:17:21;97056.28;;;36.14;21.89
8894;BME280;4483;48.622;9.230;2022-08-14T10:19:52;97062.06;;;35.67;21.82
8894;BME280;4483;48.622;9.230;2022-08-14T10:22:24;97059.44;;;35.83;22.03
8894;BME280;4483;48.622;9.230;2022-08-14T10:24:54;97048.56;;;36.18;21.72
8894;BME280;4483;48.622;9.230;2022-08-14T10:27:24;97039.78;;;36.06;21.89
8894;BME280;4483;48.622;9.230;2022-08-14T10:29:54;97043.13;;;36.29;21.91
8894;BME280;4483;48.622;9.230;2022-08-14T10:32:25;97043.91;;;35.97;21.39
8894;BME280;4483;48.622;9.230;2022-08-14T10:35:04;97033.72;;;35.71;22.06
8894;BME280;4483;48.622;9.230;2022-08-14T10:37:37;97033.53;;;35.61;22.11
8894;BME280;4483;48.622;9.230;2022-08-14T10:40:05;97041.50;;;35.84;21.74
8894;BME280;4483;48.622;9.230;2022-08-14T10:42:37;97024.75;;;36.21;21.23
8894;BME280;4483;48.622;9.230;2022-08-14T10:45:16;97023.19;;;36.09;21.43
8894;BME280;4483;48.622;9.230;2022-08-14T10:47:44;97030.59;;;36.18;21.36
8894;BME280;4483;48.622;9.230;2022-08-14T10:50:14;97017.41;;;36.33;21.01
8894;BME280;4483;48.622;9.230;2022-08-14T10:52:41;97009.94;;;36.35;21.08
8894;BME280;4483;48.622;9.230;2022-08-14T10:55:12;97013.53;;;36.58;21.11
8894;BME280;4483;48.622;9.230;2022-08-14T10:57:47;97017.28;;;36.57;20.65
8894;BME280;4483;48.622;9.230;2022-08-14T11:00:18;97014.09;;;36.76;20.59
8894;BME280;4483;48.622;9.230;2022-08-14T11:02:56;96989.94;;;36.76;19.93
8894;BME280;4483;48.622;9.230;2022-08-14T11:05:25;96999.31;;;37.12;19.68
8894;BME280;4483;48.622;9.230;2022-08-14T11:08:05;97010.72;;;37.02;19.12
8894;BME280;4483;48.622;9.230;2022-08-14T11:10:40;97004.38;;;37.08;19.12
8894;BME280;4483;48.622;9.230;2022-08-14T11:13:08;97008.13;;;37.29;18.93
8894;BME280;4483;48.622;9.230;2022-08-14T11:15:35;97008.00;;;37.41;18.63
8894;BME280;4483;48.622;9.230;2022-08-14T11:18:02;97001.25;;;37.60;18.74
8894;BME280;4483;48.622;9.230;2022-08-14T11:20:31;97004.72;;;37.82;18.88
8894;BME280;4483;48.622;9.230;2022-08-14T11:22:58;97010.28;;;37.75;18.99
8894;BME280;4483;48.622;9.230;2022-08-14T11:25:27;97002.63;;;37.41;19.03
8894;BME280;4483;48.622;9.230;2022-08-14T11:27:57;97012.56;;;37.62;18.34
8894;BME280;4483;48.622;9.230;2022-08-14T11:30:26;97007.41;;;37.17;18.18
8894;BME280;4483;48.622;9.230;2022-08-14T11:32:55;97003.19;;;37.43;18.29
8894;BME280;4483;48.622;9.230;2022-08-14T11:35:24;96998.94;;;37.47;18.38
8894;BME280;4483;48.622;9.230;2022-08-14T11:37:54;96994.03;;;37.65;17.74
8894;BME280;4483;48.622;9.230;2022-08-14T11:40:22;96995.88;;;37.86;17.37
8894;BME280;4483;48.622;9.230;2022-08-14T11:42:51;96992.59;;;37.79;17.99
8894;BME280;4483;48.622;9.230;2022-08-14T11:45:21;96991.28;;;37.82;18.53
8894;BME280;4483;48.622;9.230;2022-08-14T11:47:47;96994.69;;;38.04;17.53
8894;BME280;4483;48.622;9.230;2022-08-14T11:50:16;96993.94;;;38.08;17.14
8894;BME280;4483;48.622;9.230;2022-08-14T11:52:44;96975.31;;;38.34;17.48
8894;BME280;4483;48.622;9.230;2022-08-14T11:55:13;96976.16;;;38.71;17.22
8894;BME280;4483;48.622;9.230;2022-08-14T11:57:41;96960.91;;;38.50;16.58
8894;BME280;4483;48.622;9.230;2022-08-14T12:00:10;96979.13;;;38.38;17.33
8894;BME280;4483;48.622;9.230;2022-08-14T12:02:48;96979.06;;;38.28;16.93
8894;BME280;4483;48.622;9.230;2022-08-14T12:05:15;96963.00;;;38.43;17.38
8894;BME280;4483;48.622;9.230;2022-08-14T12:07:47;96957.47;;;38.59;16.96
8894;BME280;4483;48.622;9.230;2022-08-14T12:10:17;96947.16;;;38.88;17.07
8894;BME280;4483;48.622;9.230;2022-08-14T12:12:44;96951.53;;;38.99;17.09
8894;BME280;4483;48.622;9.230;2022-08-14T12:15:11;96951.53;;;38.99;17.12
8894;BME280;4483;48.622;9.230;2022-08-14T12:17:44;96942.09;;;39.01;16.96
8894;BME280;4483;48.622;9.230;2022-08-14T12:20:13;96927.00;;;39.00;17.04
8894;BME280;4483;48.622;9.230;2022-08-14T12:22:41;96936.91;;;38.85;17.32
8894;BME280;4483;48.622;9.230;2022-08-14T12:25:11;96940.03;;;38.25;17.42
8894;BME280;4483;48.622;9.230;2022-08-14T12:27:41;96934.34;;;38.21;17.43
8894;BME280;4483;48.622;9.230;2022-08-14T12:30:09;96934.47;;;38.42;17.28
8894;BME280;4483;48.622;9.230;2022-08-14T12:32:39;96930.22;;;38.51;17.31
8894;BME280;4483;48.622;9.230;2022-08-14T12:35:08;96933.63;;;38.78;17.26
8894;BME280;4483;48.622;9.230;2022-08-14T12:37:37;96927.16;;;38.74;16.13
8894;BME280;4483;48.622;9.230;2022-08-14T12:40:11;96932.50;;;38.64;16.46
8894;BME280;4483;48.622;9.230;2022-08-14T12:42:40;96918.22;;;38.68;16.40
8894;BME280;4483;48.622;9.230;2022-08-14T12:45:10;96904.38;;;39.01;16.64
8894;BME280;4483;48.622;9.230;2022-08-14T12:47:38;96906.41;;;39.41;16.45
8894;BME280;4483;48.622;9.230;2022-08-14T12:50:06;96905.41;;;39.77;16.07
8894;BME280;4483;48.622;9.230;2022-08-14T12:52:34;96911.84;;;39.71;15.90
8894;BME280;4483;48.622;9.230;2022-08-14T12:55:03;96907.97;;;39.17;16.24
8894;BME280;4483;48.622;9.230;2022-08-14T12:57:36;96899.19;;;38.80;16.37
8894;BME280;4483;48.622;9.230;2022-08-14T13:00:07;96889.22;;;38.85;17.02
8894;BME280;4483;48.622;9.230;2022-08-14T13:02:36;96890.59;;;38.88;16.71
8894;BME280;4483;48.622;9.230;2022-08-14T13:05:04;96885.97;;;38.78;16.42
8894;BME280;4483;48.622;9.230;2022-08-14T13:07:31;96882.69;;;38.66;16.55
8894;BME280;4483;48.622;9.230;2022-08-14T13:09:58;96881.91;;;38.76;16.81
8894;BME280;4483;48.622;9.230;2022-08-14T13:12:26;96865.84;;;38.96;17.19
8894;BME280;4483;48.622;9.230;2022-08-14T13:14:56;96881.56;;;39.19;17.20
8894;BME280;4483;48.622;9.230;2022-08-14T13:17:26;96868.34;;;39.17;16.69
8894;BME280;4483;48.622;9.230;2022-08-14T13:19:55;96865.91;;;39.06;16.25
8894;BME280;4483;48.622;9.230;2022-08-14T13:22:24;96863.69;;;38.93;16.59
8894;BME280;4483;48.622;9.230;2022-08-14T13:24:52;96868.50;;;38.86;16.87
8894;BME280;4483;48.622;9.230;2022-08-14T13:27:21;96868.50;;;38.86;17.05
8894;BME280;4483;48.622;9.230;2022-08-14T13:29:50;96867.97;;;38.94;17.26
8894;BME280;4483;48.622;9.230;2022-08-14T13:32:18;96863.13;;;38.91;17.22